Terminal Aerodrome Forecast
Issued by NWS Charleston, WV

Current Version | Previous Version | Graphics & Text | Print | Product List | Glossary On
Versions: 1 2 3 4 5 6 7 8 9 10 11 12 13 14 15 16 17 18 19 20 21 22 23 24 25 26 27 28 29 30 31
000
FTUS41 KRLX 172131 AAA
TAFPKB
TAF AMD
KPKB 172131Z 1722/1818 13005KT P6SM SCT250
     FM180900 18007KT P6SM OVC070
     FM181100 19008G14KT P6SM SHRA OVC035
     FM181600 20010G18KT P6SM SHRA OVC035=

USA.gov is the U.S. government's official web portal to all federal, state and local government web resources and services.